LIPL/QBS METAR and TAF weather

Enter ICAO airport designator
Station Type Date Time Source
LIPL METAR 2020/09/18 05:55 UTC NOAA

LIPL 180555Z 07002KT CAVOK 19/15 Q1018 RMK SKC VIS MIN 9999 WIND THR31 06002KT WIND THR13 11002KT BLU


Station Type Date Time Source
LIPL Decoded METAR 2020/09/18 05:55 UTC NOAA

Brescia / Ghedi, Italy (LIPL) 45-25N 010-17E 97M
Sep 18, 2020 - 01:55 AM EDT / 2020.09.18 0555 UTC
Wind: from the ENE (070 degrees) at 2 MPH (2 KT):0
Visibility: greater than 7 mile(s):0
Temperature: 66 F (19 C)
Dew Point: 59 F (15 C)
Relative Humidity: 77%
Pressure (altimeter): 30.06 in. Hg (1018 hPa)
ob: LIPL 180555Z 07002KT CAVOK 19/15 Q1018 RMK SKC VIS MIN 9999 WIND THR31 06002KT WIND THR13 11002KT BLU
cycle: 6

Station Type Date Time Source
LIPL TAF 2020/02/28 09:24 UTC NOAA

TAF TAF LIPL 280800Z 2809/2821 27007KT CAVOK

Example: see airport list